ACA1373 MMUN-CYYZ
Flight info
| Callsign | ACA1373 |
|---|---|
| Flight time | N/A |
| Altitude | 39000 |
| Route | ROTGI2A ROTGI UM219 MYDIA M219 KNOST Q109 CAMJO DANCO OXMAN LINNG3 |
| Aircraft | A343/H-SDE2E3FGHIJ4J5M1RWXY/LB1D1 |
Departure
| Time | N/A |
|---|---|
| Airport | Cancún International Airport (MMUN) |
Arrival
| Time | 2026-05-04 20:28 |
|---|---|
| Airport | Toronto Pearson International Airport (CYYZ) |
| Time | Latitude | Longitude | Altitude | Speed | Heading |
|---|---|---|---|---|---|
| 2026-05-04 18:53 | 33.56226 | -81.80863 | 39105 ft | 484 kts | 6° |
| 2026-05-04 18:53 | 33.59457 | -81.79914 | 39107 ft | 484 kts | 6° |
| 2026-05-04 18:54 | 33.66000 | -81.77963 | 39111 ft | 484 kts | 7° |
| 2026-05-04 18:54 | 33.72550 | -81.75999 | 39111 ft | 484 kts | 7° |
| 2026-05-04 18:55 | 33.79060 | -81.74049 | 39080 ft | 484 kts | 7° |
| 2026-05-04 18:55 | 33.88866 | -81.71112 | 39077 ft | 483 kts | 7° |
| 2026-05-04 18:56 | 33.95375 | -81.69160 | 39088 ft | 484 kts | 7° |
| 2026-05-04 18:56 | 34.01909 | -81.67195 | 39076 ft | 482 kts | 7° |
| 2026-05-04 18:57 | 34.08389 | -81.65243 | 39080 ft | 482 kts | 7° |
| 2026-05-04 18:57 | 34.14902 | -81.63282 | 39091 ft | 482 kts | 7° |
| 2026-05-04 18:58 | 34.21422 | -81.61314 | 39104 ft | 483 kts | 7° |
| 2026-05-04 18:58 | 34.27942 | -81.59341 | 39101 ft | 482 kts | 7° |
| 2026-05-04 18:59 | 34.34462 | -81.57366 | 39100 ft | 482 kts | 7° |
| 2026-05-04 18:59 | 34.40936 | -81.55401 | 39065 ft | 482 kts | 7° |
| 2026-05-04 19:00 | 34.47461 | -81.53419 | 39071 ft | 482 kts | 8° |
| 2026-05-04 19:00 | 34.53970 | -81.51437 | 39067 ft | 482 kts | 8° |
| 2026-05-04 19:01 | 34.60441 | -81.49464 | 39065 ft | 482 kts | 8° |
| 2026-05-04 19:01 | 34.66950 | -81.47477 | 39069 ft | 482 kts | 8° |
| 2026-05-04 19:02 | 34.73438 | -81.45492 | 39076 ft | 482 kts | 8° |
| 2026-05-04 19:02 | 34.79941 | -81.43500 | 39074 ft | 482 kts | 8° |
| 2026-05-04 19:03 | 34.86444 | -81.41504 | 39074 ft | 482 kts | 8° |
| 2026-05-04 19:03 | 34.92958 | -81.39502 | 39071 ft | 482 kts | 8° |
| 2026-05-04 19:04 | 34.99464 | -81.37499 | 39067 ft | 482 kts | 8° |
| 2026-05-04 19:04 | 35.05938 | -81.35503 | 39050 ft | 482 kts | 8° |
| 2026-05-04 19:05 | 35.12411 | -81.33503 | 39052 ft | 481 kts | 8° |
| 2026-05-04 19:05 | 35.18925 | -81.31488 | 39051 ft | 481 kts | 8° |
| 2026-05-04 19:06 | 35.25407 | -81.29479 | 39052 ft | 479 kts | 8° |
| 2026-05-04 19:06 | 35.31839 | -81.27483 | 39046 ft | 479 kts | 8° |
| 2026-05-04 19:07 | 35.38328 | -81.25467 | 39049 ft | 480 kts | 8° |
| 2026-05-04 19:07 | 35.44787 | -81.23456 | 39082 ft | 480 kts | 8° |
| 2026-05-04 19:08 | 35.51260 | -81.21434 | 39055 ft | 479 kts | 8° |
| 2026-05-04 19:08 | 35.57732 | -81.19411 | 39054 ft | 479 kts | 8° |
| 2026-05-04 19:09 | 35.64161 | -81.17401 | 39042 ft | 478 kts | 8° |
| 2026-05-04 19:09 | 35.70618 | -81.15377 | 39045 ft | 478 kts | 8° |
| 2026-05-04 19:10 | 35.77077 | -81.13348 | 39051 ft | 479 kts | 8° |
| 2026-05-04 19:10 | 35.83540 | -81.11315 | 39049 ft | 478 kts | 8° |
| 2026-05-04 19:11 | 35.89962 | -81.09291 | 39011 ft | 478 kts | 8° |
| 2026-05-04 19:11 | 35.96433 | -81.07249 | 39029 ft | 478 kts | 8° |
| 2026-05-04 19:12 | 36.06071 | -81.04201 | 39056 ft | 478 kts | 8° |
| 2026-05-04 19:13 | 36.12529 | -81.02154 | 39073 ft | 478 kts | 8° |
| 2026-05-04 19:13 | 36.18963 | -81.00111 | 39092 ft | 478 kts | 8° |
| 2026-05-04 19:14 | 36.25384 | -80.98069 | 39078 ft | 478 kts | 8° |
| 2026-05-04 19:14 | 36.31840 | -80.96012 | 39065 ft | 478 kts | 8° |
| 2026-05-04 19:15 | 36.38258 | -80.93964 | 39044 ft | 478 kts | 8° |
| 2026-05-04 19:15 | 36.44707 | -80.91903 | 39033 ft | 478 kts | 8° |
| 2026-05-04 19:16 | 36.51157 | -80.89838 | 39010 ft | 478 kts | 8° |
| 2026-05-04 19:16 | 36.57566 | -80.87783 | 39037 ft | 479 kts | 8° |
| 2026-05-04 19:17 | 36.64036 | -80.85703 | 39046 ft | 479 kts | 8° |
| 2026-05-04 19:17 | 36.70456 | -80.83634 | 39054 ft | 476 kts | 8° |
| 2026-05-04 19:18 | 36.76865 | -80.81566 | 39056 ft | 475 kts | 8° |
| 2026-05-04 19:18 | 36.83265 | -80.79501 | 39054 ft | 474 kts | 8° |
| 2026-05-04 19:19 | 36.89635 | -80.77442 | 39063 ft | 474 kts | 8° |
| 2026-05-04 19:19 | 36.96032 | -80.75367 | 39024 ft | 472 kts | 8° |
| 2026-05-04 19:20 | 37.02362 | -80.73312 | 39032 ft | 472 kts | 8° |
| 2026-05-04 19:20 | 37.08730 | -80.71243 | 39036 ft | 472 kts | 8° |
| 2026-05-04 19:21 | 37.15117 | -80.69444 | 39041 ft | 469 kts | 5° |
| 2026-05-04 19:21 | 37.21533 | -80.67943 | 39036 ft | 467 kts | 5° |
| 2026-05-04 19:22 | 37.27874 | -80.66436 | 39007 ft | 468 kts | 5° |
| 2026-05-04 19:22 | 37.34230 | -80.64878 | 38998 ft | 468 kts | 5° |
| 2026-05-04 19:23 | 37.40630 | -80.63265 | 38996 ft | 467 kts | 6° |
| 2026-05-04 19:23 | 37.46977 | -80.61657 | 38994 ft | 466 kts | 6° |
| 2026-05-04 19:24 | 37.53333 | -80.60051 | 38993 ft | 466 kts | 6° |
| 2026-05-04 19:24 | 37.58632 | -80.58713 | 39017 ft | 466 kts | 6° |
| 2026-05-04 19:25 | 37.64982 | -80.57107 | 39002 ft | 464 kts | 6° |
| 2026-05-04 19:25 | 37.71313 | -80.55502 | 39005 ft | 463 kts | 6° |
| 2026-05-04 19:26 | 37.77593 | -80.53909 | 39005 ft | 462 kts | 6° |
| 2026-05-04 19:26 | 37.83928 | -80.52299 | 39013 ft | 464 kts | 7° |
| 2026-05-04 19:27 | 37.90212 | -80.50698 | 39008 ft | 463 kts | 7° |
| 2026-05-04 19:27 | 37.96517 | -80.49089 | 39006 ft | 462 kts | 7° |
| 2026-05-04 19:28 | 38.02836 | -80.47475 | 38989 ft | 462 kts | 7° |
| 2026-05-04 19:28 | 38.09128 | -80.45864 | 38992 ft | 462 kts | 7° |
| 2026-05-04 19:29 | 38.15436 | -80.44247 | 38991 ft | 462 kts | 7° |
| 2026-05-04 19:29 | 38.21757 | -80.42621 | 38992 ft | 462 kts | 7° |
| 2026-05-04 19:30 | 38.28031 | -80.41019 | 38993 ft | 462 kts | 7° |
| 2026-05-04 19:30 | 38.34316 | -80.39408 | 38987 ft | 459 kts | 7° |
| 2026-05-04 19:31 | 38.40583 | -80.37793 | 38985 ft | 459 kts | 7° |
| 2026-05-04 19:31 | 38.46831 | -80.36178 | 38981 ft | 460 kts | 7° |
| 2026-05-04 19:32 | 38.53112 | -80.34550 | 38980 ft | 460 kts | 7° |
| 2026-05-04 19:32 | 38.59396 | -80.32919 | 38971 ft | 460 kts | 7° |
| 2026-05-04 19:33 | 38.65686 | -80.31283 | 38973 ft | 460 kts | 7° |
| 2026-05-04 19:33 | 38.71938 | -80.29654 | 38976 ft | 461 kts | 7° |
| 2026-05-04 19:34 | 38.78236 | -80.28010 | 38964 ft | 463 kts | 7° |
| 2026-05-04 19:34 | 38.84562 | -80.26356 | 38954 ft | 464 kts | 7° |
| 2026-05-04 19:35 | 38.90896 | -80.24696 | 38942 ft | 464 kts | 7° |
| 2026-05-04 19:35 | 38.97191 | -80.23043 | 38945 ft | 463 kts | 7° |
| 2026-05-04 19:36 | 39.03499 | -80.21384 | 38918 ft | 462 kts | 7° |
| 2026-05-04 19:36 | 39.09806 | -80.19722 | 38917 ft | 462 kts | 7° |
| 2026-05-04 19:37 | 39.16070 | -80.18068 | 38917 ft | 462 kts | 7° |
| 2026-05-04 19:37 | 39.22357 | -80.16405 | 38915 ft | 460 kts | 7° |
| 2026-05-04 19:38 | 39.28630 | -80.14744 | 38913 ft | 460 kts | 7° |
| 2026-05-04 19:38 | 39.34908 | -80.13079 | 38916 ft | 460 kts | 7° |
| 2026-05-04 19:39 | 39.41146 | -80.11420 | 38915 ft | 460 kts | 7° |
| 2026-05-04 19:39 | 39.47400 | -80.09753 | 38907 ft | 457 kts | 7° |
| 2026-05-04 19:40 | 39.53655 | -80.08084 | 38897 ft | 457 kts | 7° |
| 2026-05-04 19:40 | 39.59894 | -80.06416 | 38913 ft | 457 kts | 7° |
| 2026-05-04 19:41 | 39.66080 | -80.04759 | 38917 ft | 456 kts | 7° |
| 2026-05-04 19:41 | 39.72300 | -80.03090 | 38909 ft | 455 kts | 7° |
| 2026-05-04 19:42 | 39.78511 | -80.01421 | 38903 ft | 455 kts | 7° |
| 2026-05-04 19:42 | 39.84683 | -79.99758 | 38911 ft | 455 kts | 7° |
| 2026-05-04 19:43 | 39.90887 | -79.98083 | 38888 ft | 453 kts | 7° |
| 2026-05-04 19:43 | 39.97030 | -79.96423 | 38882 ft | 452 kts | 7° |
| 2026-05-04 19:44 | 40.03191 | -79.94756 | 38876 ft | 452 kts | 7° |
| 2026-05-04 19:44 | 40.09310 | -79.93095 | 38863 ft | 450 kts | 7° |
| 2026-05-04 19:45 | 40.15455 | -79.91425 | 38857 ft | 449 kts | 7° |
| 2026-05-04 19:45 | 40.21578 | -79.89758 | 38853 ft | 449 kts | 7° |
| 2026-05-04 19:46 | 40.27705 | -79.88087 | 38852 ft | 449 kts | 7° |
| 2026-05-04 19:46 | 40.33790 | -79.86424 | 38850 ft | 449 kts | 7° |
| 2026-05-04 19:47 | 40.39908 | -79.84749 | 38849 ft | 449 kts | 7° |
| 2026-05-04 19:47 | 40.46002 | -79.83078 | 38859 ft | 449 kts | 7° |
| 2026-05-04 19:48 | 40.52124 | -79.81394 | 38856 ft | 449 kts | 6° |
| 2026-05-04 19:48 | 40.58217 | -79.79717 | 38857 ft | 449 kts | 6° |
| 2026-05-04 19:49 | 40.64340 | -79.78028 | 38854 ft | 449 kts | 6° |
| 2026-05-04 19:49 | 40.70463 | -79.76336 | 38852 ft | 449 kts | 6° |
| 2026-05-04 19:50 | 40.76552 | -79.74650 | 38854 ft | 451 kts | 6° |
| 2026-05-04 19:50 | 40.82708 | -79.72943 | 38848 ft | 452 kts | 6° |
| 2026-05-04 19:51 | 40.88861 | -79.71231 | 38861 ft | 451 kts | 6° |
| 2026-05-04 19:51 | 40.95024 | -79.69515 | 38852 ft | 453 kts | 6° |
| 2026-05-04 19:52 | 41.01176 | -79.67799 | 38845 ft | 454 kts | 6° |
| 2026-05-04 19:52 | 41.07359 | -79.66071 | 38841 ft | 454 kts | 6° |
| 2026-05-04 19:53 | 41.13561 | -79.64333 | 38843 ft | 455 kts | 6° |
| 2026-05-04 19:53 | 41.19736 | -79.62600 | 38831 ft | 456 kts | 6° |
| 2026-05-04 19:54 | 41.25952 | -79.60852 | 38829 ft | 456 kts | 6° |
| 2026-05-04 19:54 | 41.32165 | -79.59103 | 38831 ft | 456 kts | 6° |
| 2026-05-04 19:55 | 41.38379 | -79.57348 | 38826 ft | 457 kts | 6° |
| 2026-05-04 19:55 | 41.44578 | -79.55595 | 38824 ft | 457 kts | 6° |
| 2026-05-04 19:56 | 41.50809 | -79.53829 | 38818 ft | 457 kts | 6° |
| 2026-05-04 19:56 | 41.56997 | -79.52073 | 38283 ft | 460 kts | 6° |
| 2026-05-04 19:56 | 41.60122 | -79.51184 | 37843 ft | 456 kts | 6° |
| 2026-05-04 19:57 | 41.63223 | -79.50298 | 37434 ft | 452 kts | 6° |
| 2026-05-04 19:57 | 41.66301 | -79.49421 | 36949 ft | 451 kts | 6° |
| 2026-05-04 19:57 | 41.69326 | -79.48559 | 36438 ft | 449 kts | 7° |
| 2026-05-04 19:57 | 41.72381 | -79.47686 | 35950 ft | 449 kts | 7° |
| 2026-05-04 19:58 | 41.75437 | -79.46813 | 35440 ft | 448 kts | 7° |
| 2026-05-04 19:58 | 41.78491 | -79.45939 | 34937 ft | 447 kts | 7° |
| 2026-05-04 19:58 | 41.81548 | -79.45064 | 34429 ft | 447 kts | 7° |
| 2026-05-04 19:58 | 41.84591 | -79.44192 | 33918 ft | 447 kts | 8° |
| 2026-05-04 19:59 | 41.87633 | -79.43319 | 33322 ft | 447 kts | 8° |
| 2026-05-04 19:59 | 41.90647 | -79.42453 | 32630 ft | 449 kts | 8° |
| 2026-05-04 19:59 | 41.93711 | -79.41572 | 31991 ft | 450 kts | 7° |
| 2026-05-04 19:59 | 41.96788 | -79.40688 | 31261 ft | 453 kts | 7° |
| 2026-05-04 20:00 | 41.99887 | -79.39798 | 30507 ft | 457 kts | 8° |
| 2026-05-04 20:00 | 42.03013 | -79.38898 | 29756 ft | 460 kts | 8° |
| 2026-05-04 20:00 | 42.06119 | -79.38002 | 29069 ft | 463 kts | 8° |
| 2026-05-04 20:00 | 42.09294 | -79.37092 | 28813 ft | 469 kts | 7° |
| 2026-05-04 20:01 | 42.12536 | -79.36482 | 28811 ft | 468 kts | 0° |
| 2026-05-04 20:01 | 42.19008 | -79.35914 | 28234 ft | 463 kts | 359° |
| 2026-05-04 20:01 | 42.22225 | -79.35663 | 27555 ft | 462 kts | 359° |
| 2026-05-04 20:02 | 42.25429 | -79.35411 | 26962 ft | 460 kts | 359° |
| 2026-05-04 20:02 | 42.28614 | -79.35158 | 26389 ft | 457 kts | 358° |
| 2026-05-04 20:02 | 42.31777 | -79.34905 | 25862 ft | 453 kts | 358° |
| 2026-05-04 20:02 | 42.34888 | -79.34655 | 25332 ft | 451 kts | 358° |
| 2026-05-04 20:03 | 42.38012 | -79.34405 | 24806 ft | 447 kts | 358° |
| 2026-05-04 20:03 | 42.41111 | -79.34155 | 24290 ft | 444 kts | 358° |
| 2026-05-04 20:03 | 42.44197 | -79.33907 | 23782 ft | 442 kts | 358° |
| 2026-05-04 20:03 | 42.47259 | -79.33660 | 23279 ft | 439 kts | 358° |
| 2026-05-04 20:04 | 42.50296 | -79.33415 | 22666 ft | 437 kts | 358° |
| 2026-05-04 20:04 | 42.53329 | -79.33171 | 22117 ft | 434 kts | 358° |
| 2026-05-04 20:04 | 42.56339 | -79.32927 | 21544 ft | 431 kts | 358° |
| 2026-05-04 20:04 | 42.59291 | -79.32689 | 20978 ft | 428 kts | 358° |
| 2026-05-04 20:05 | 42.62242 | -79.32447 | 20102 ft | 420 kts | 358° |
| 2026-05-04 20:05 | 42.65142 | -79.32212 | 19330 ft | 418 kts | 358° |
| 2026-05-04 20:05 | 42.68068 | -79.31979 | 18898 ft | 424 kts | 358° |
| 2026-05-04 20:05 | 42.71020 | -79.31741 | 18762 ft | 424 kts | 358° |
| 2026-05-04 20:06 | 42.73954 | -79.31501 | 18758 ft | 420 kts | 358° |
| 2026-05-04 20:06 | 42.76871 | -79.31262 | 18712 ft | 418 kts | 358° |
| 2026-05-04 20:06 | 42.79741 | -79.31024 | 18136 ft | 408 kts | 359° |
| 2026-05-04 20:06 | 42.82550 | -79.30815 | 16968 ft | 400 kts | 356° |
| 2026-05-04 20:07 | 42.85308 | -79.30938 | 16198 ft | 404 kts | 352° |
| 2026-05-04 20:07 | 42.88116 | -79.31211 | 15823 ft | 404 kts | 351° |
| 2026-05-04 20:07 | 42.90893 | -79.31489 | 15834 ft | 397 kts | 351° |
| 2026-05-04 20:07 | 42.93637 | -79.31764 | 16052 ft | 398 kts | 351° |
| 2026-05-04 20:08 | 42.96450 | -79.32050 | 16041 ft | 404 kts | 351° |
| 2026-05-04 20:08 | 42.99247 | -79.32330 | 15589 ft | 400 kts | 351° |
| 2026-05-04 20:08 | 43.01985 | -79.32603 | 15046 ft | 399 kts | 351° |
| 2026-05-04 20:08 | 43.04754 | -79.32890 | 14496 ft | 398 kts | 351° |
| 2026-05-04 20:09 | 43.07525 | -79.33165 | 13993 ft | 397 kts | 352° |
| 2026-05-04 20:09 | 43.10270 | -79.33450 | 13510 ft | 394 kts | 351° |
| 2026-05-04 20:09 | 43.13011 | -79.33714 | 13005 ft | 392 kts | 352° |
| 2026-05-04 20:09 | 43.15688 | -79.33982 | 12473 ft | 391 kts | 351° |
| 2026-05-04 20:10 | 43.18359 | -79.34260 | 11967 ft | 389 kts | 351° |
| 2026-05-04 20:10 | 43.21042 | -79.34528 | 11691 ft | 381 kts | 352° |
| 2026-05-04 20:10 | 43.23645 | -79.34777 | 11649 ft | 366 kts | 351° |
| 2026-05-04 20:10 | 43.26138 | -79.35017 | 11647 ft | 351 kts | 351° |
| 2026-05-04 20:11 | 43.28530 | -79.35257 | 11636 ft | 337 kts | 350° |
| 2026-05-04 20:11 | 43.30737 | -79.35829 | 11647 ft | 316 kts | 335° |
| 2026-05-04 20:11 | 43.32713 | -79.36946 | 11629 ft | 300 kts | 329° |
| 2026-05-04 20:11 | 43.34577 | -79.38144 | 11629 ft | 293 kts | 329° |
| 2026-05-04 20:12 | 43.36429 | -79.39348 | 11627 ft | 293 kts | 329° |
| 2026-05-04 20:12 | 43.37645 | -79.40137 | 11613 ft | 292 kts | 329° |
| 2026-05-04 20:12 | 43.40092 | -79.41718 | 11395 ft | 285 kts | 329° |
| 2026-05-04 20:12 | 43.41849 | -79.42848 | 11248 ft | 279 kts | 329° |
| 2026-05-04 20:13 | 43.43013 | -79.43598 | 11130 ft | 277 kts | 329° |
| 2026-05-04 20:13 | 43.44750 | -79.44719 | 10812 ft | 273 kts | 328° |
| 2026-05-04 20:13 | 43.46461 | -79.45823 | 10277 ft | 269 kts | 328° |
| 2026-05-04 20:13 | 43.48160 | -79.46923 | 9696 ft | 269 kts | 328° |
| 2026-05-04 20:14 | 43.49857 | -79.48019 | 9112 ft | 267 kts | 328° |
| 2026-05-04 20:14 | 43.51520 | -79.49093 | 8542 ft | 265 kts | 328° |
| 2026-05-04 20:14 | 43.53175 | -79.50161 | 8124 ft | 261 kts | 328° |
| 2026-05-04 20:14 | 43.54823 | -79.51228 | 8019 ft | 262 kts | 327° |
| 2026-05-04 20:15 | 43.56476 | -79.52302 | 8012 ft | 262 kts | 328° |
| 2026-05-04 20:15 | 43.58170 | -79.53160 | 8001 ft | 269 kts | 342° |
| 2026-05-04 20:15 | 43.60078 | -79.52998 | 7997 ft | 285 kts | 14° |
| 2026-05-04 20:15 | 43.61723 | -79.51493 | 8000 ft | 293 kts | 42° |
| 2026-05-04 20:16 | 43.63135 | -79.49434 | 7957 ft | 297 kts | 45° |
| 2026-05-04 20:16 | 43.64493 | -79.47387 | 7655 ft | 297 kts | 44° |
| 2026-05-04 20:16 | 43.65904 | -79.45294 | 7371 ft | 297 kts | 44° |
| 2026-05-04 20:16 | 43.67322 | -79.43211 | 7088 ft | 298 kts | 44° |
| 2026-05-04 20:17 | 43.68743 | -79.41121 | 6845 ft | 297 kts | 44° |
| 2026-05-04 20:17 | 43.70154 | -79.39045 | 6584 ft | 296 kts | 44° |
| 2026-05-04 20:17 | 43.71549 | -79.37005 | 6291 ft | 296 kts | 44° |
| 2026-05-04 20:17 | 43.72962 | -79.34935 | 6051 ft | 293 kts | 44° |
| 2026-05-04 20:18 | 43.74359 | -79.32899 | 5909 ft | 292 kts | 43° |
| 2026-05-04 20:18 | 43.75762 | -79.30846 | 5617 ft | 292 kts | 44° |
| 2026-05-04 20:18 | 43.77156 | -79.28805 | 5336 ft | 291 kts | 44° |
| 2026-05-04 20:18 | 43.78545 | -79.26765 | 5047 ft | 289 kts | 44° |
| 2026-05-04 20:19 | 43.79905 | -79.24766 | 5008 ft | 289 kts | 44° |
| 2026-05-04 20:19 | 43.81447 | -79.23027 | 4999 ft | 283 kts | 20° |
| 2026-05-04 20:19 | 43.83289 | -79.22493 | 4867 ft | 263 kts | 346° |
| 2026-05-04 20:19 | 43.84915 | -79.23317 | 4525 ft | 242 kts | 315° |
| 2026-05-04 20:20 | 43.85975 | -79.25013 | 4153 ft | 228 kts | 290° |
| 2026-05-04 20:20 | 43.86354 | -79.27052 | 3919 ft | 215 kts | 267° |
| 2026-05-04 20:20 | 43.86100 | -79.29030 | 3708 ft | 205 kts | 246° |
| 2026-05-04 20:20 | 43.85351 | -79.30685 | 3540 ft | 200 kts | 234° |
| 2026-05-04 20:21 | 43.84633 | -79.32277 | 3374 ft | 196 kts | 246° |
| 2026-05-04 20:21 | 43.84325 | -79.34112 | 3170 ft | 196 kts | 260° |
| 2026-05-04 20:21 | 43.83011 | -79.37146 | 2992 ft | 189 kts | 227° |
| 2026-05-04 20:22 | 43.82092 | -79.38453 | 2997 ft | 190 kts | 228° |
| 2026-05-04 20:22 | 43.81185 | -79.39782 | 3008 ft | 187 kts | 228° |
| 2026-05-04 20:22 | 43.80316 | -79.41061 | 3050 ft | 177 kts | 228° |
| 2026-05-04 20:22 | 43.79477 | -79.42302 | 3096 ft | 176 kts | 229° |
| 2026-05-04 20:23 | 43.78687 | -79.43486 | 3087 ft | 160 kts | 226° |
| 2026-05-04 20:23 | 43.77985 | -79.44556 | 3055 ft | 143 kts | 228° |
| 2026-05-04 20:23 | 43.77350 | -79.45560 | 3048 ft | 133 kts | 231° |
| 2026-05-04 20:23 | 43.76778 | -79.46522 | 3039 ft | 126 kts | 232° |
| 2026-05-04 20:24 | 43.76186 | -79.47410 | 3020 ft | 126 kts | 220° |
| 2026-05-04 20:24 | 43.75514 | -79.48188 | 2812 ft | 125 kts | 224° |
| 2026-05-04 20:24 | 43.74920 | -79.49050 | 2682 ft | 125 kts | 228° |
| 2026-05-04 20:24 | 43.74316 | -79.49927 | 2500 ft | 125 kts | 226° |
| 2026-05-04 20:25 | 43.73714 | -79.50764 | 2336 ft | 124 kts | 225° |
| 2026-05-04 20:25 | 43.73120 | -79.51605 | 2143 ft | 120 kts | 225° |
| 2026-05-04 20:25 | 43.72537 | -79.52449 | 2011 ft | 125 kts | 226° |
| 2026-05-04 20:25 | 43.71934 | -79.53336 | 1841 ft | 127 kts | 227° |
| 2026-05-04 20:26 | 43.71323 | -79.54218 | 1671 ft | 126 kts | 225° |
| 2026-05-04 20:26 | 43.70716 | -79.55094 | 1484 ft | 126 kts | 227° |
| 2026-05-04 20:26 | 43.70116 | -79.55970 | 1334 ft | 127 kts | 226° |
| 2026-05-04 20:26 | 43.69507 | -79.56863 | 1184 ft | 129 kts | 228° |
| 2026-05-04 20:27 | 43.68881 | -79.57752 | 965 ft | 127 kts | 224° |
| 2026-05-04 20:27 | 43.68298 | -79.58624 | 830 ft | 121 kts | 227° |
| 2026-05-04 20:27 | 43.67722 | -79.59436 | 646 ft | 118 kts | 225° |
| 2026-05-04 20:27 | 43.67182 | -79.60243 | 576 ft | 102 kts | 226° |
| 2026-05-04 20:28 | 43.66819 | -79.60770 | 581 ft | 48 kts | 227° |
| 2026-05-04 20:28 | 43.66713 | -79.61048 | 581 ft | 16 kts | 251° |
| 2026-05-04 20:28 | 43.66684 | -79.61168 | 578 ft | 13 kts | 252° |
| 2026-05-04 20:28 | 43.66710 | -79.61278 | 575 ft | 13 kts | 311° |
| 2026-05-04 20:29 | 43.66768 | -79.61360 | 577 ft | 11 kts | 315° |
| 2026-05-04 20:29 | 43.66833 | -79.61444 | 574 ft | 17 kts | 317° |
| 2026-05-04 20:29 | 43.66924 | -79.61555 | 568 ft | 9 kts | 332° |
| 2026-05-04 20:29 | 43.66957 | -79.61533 | 572 ft | 3 kts | 62° |
| 2026-05-04 20:30 | 43.66961 | -79.61492 | 571 ft | 8 kts | 81° |
| 2026-05-04 20:30 | 43.66975 | -79.61421 | 569 ft | 7 kts | 67° |
| 2026-05-04 20:30 | 43.67003 | -79.61364 | 574 ft | 8 kts | 49° |
| 2026-05-04 20:30 | 43.67047 | -79.61303 | 571 ft | 12 kts | 45° |
| 2026-05-04 20:31 | 43.67101 | -79.61227 | 572 ft | 0 kts | 45° |
| 2026-05-04 20:31 | 43.67104 | -79.61223 | 574 ft | 0 kts | 45° |
| 2026-05-04 20:31 | 43.67104 | -79.61222 | 574 ft | 0 kts | 45° |
| 2026-05-04 20:31 | 43.67110 | -79.61214 | 573 ft | 0 kts | 45° |
| 2026-05-04 20:32 | 43.67121 | -79.61199 | 572 ft | 4 kts | 45° |
| 2026-05-04 20:32 | 43.67153 | -79.61156 | 576 ft | 9 kts | 42° |
| 2026-05-04 20:32 | 43.67200 | -79.61170 | 574 ft | 9 kts | 333° |
| 2026-05-04 20:32 | 43.67260 | -79.61195 | 568 ft | 9 kts | 13° |
| 2026-05-04 20:33 | 43.67306 | -79.61132 | 571 ft | 9 kts | 53° |
| 2026-05-04 20:33 | 43.67351 | -79.61096 | 569 ft | 7 kts | 8° |
| 2026-05-04 20:33 | 43.67403 | -79.61100 | 569 ft | 1 kts | 354° |
| 2026-05-04 20:34 | 43.67405 | -79.61101 | 569 ft | 2 kts | 354° |
| 2026-05-04 20:34 | 43.67450 | -79.61104 | 570 ft | 10 kts | 8° |
| 2026-05-04 20:34 | 43.67491 | -79.61038 | 573 ft | 9 kts | 59° |
| 2026-05-04 20:34 | 43.67522 | -79.60966 | 572 ft | 8 kts | 59° |
| 2026-05-04 20:35 | 43.67547 | -79.60940 | 574 ft | 1 kts | 354° |
| 2026-05-04 20:35 | 43.67557 | -79.60959 | 573 ft | 8 kts | 308° |
| 2026-05-04 20:35 | 43.67599 | -79.61008 | 574 ft | 0 kts | 329° |
| 2026-05-04 20:35 | 43.67601 | -79.61010 | 575 ft | 0 kts | 330° |